Time;durP1;ratioP1;P1;durP2;ratioP2;P2;SDS_P1;SDS_P2;PMS_P1;PMS_P2;Temp;Humidity;BMP_temperature;BMP_pressure;BME280_temperature;BME280_humidity;BME280_pressure;Samples;Min_cycle;Max_cycle;Signal;HPM_P1;HPM_P2
2024/01/12 00:00:06;;;;;;;8.55;2.22;;;4.90;99.90;;;;;;5023720;28;20414;-60
2024/01/12 00:02:37;;;;;;;12.00;2.00;;;4.90;99.90;;;;;;5014522;28;20046;-60
2024/01/12 00:05:04;;;;;;;12.30;2.30;;;4.90;99.90;;;;;;5015370;28;20038;-60
2024/01/12 00:07:31;;;;;;;8.55;1.70;;;4.80;99.90;;;;;;5015362;28;20041;-61
2024/01/12 00:09:58;;;;;;;9.75;2.38;;;4.80;99.90;;;;;;5015139;28;20129;-61
2024/01/12 00:12:25;;;;;;;10.23;2.40;;;4.80;99.90;;;;;;5013986;28;20044;-61
2024/01/12 00:14:51;;;;;;;10.57;2.25;;;4.80;99.90;;;;;;5014971;28;20451;-62
2024/01/12 00:17:18;;;;;;;9.45;2.35;;;4.80;99.90;;;;;;5014922;28;20406;-61
2024/01/12 00:19:46;;;;;;;10.52;2.55;;;4.80;99.90;;;;;;5014829;28;20050;-61
2024/01/12 00:22:12;;;;;;;9.93;2.22;;;4.80;99.90;;;;;;5014928;28;20057;-61
2024/01/12 00:24:39;;;;;;;11.65;2.55;;;4.80;99.90;;;;;;5015705;28;20129;-61
2024/01/12 00:27:06;;;;;;;10.27;2.20;;;4.80;99.90;;;;;;5034012;28;20045;-61
2024/01/12 00:29:33;;;;;;;10.30;2.00;;;4.80;99.90;;;;;;5033742;28;20052;-61
2024/01/12 00:31:59;;;;;;;8.60;2.05;;;4.80;99.90;;;;;;5034081;28;20534;-61
2024/01/12 00:34:26;;;;;;;8.70;2.10;;;4.80;99.90;;;;;;5033894;28;20045;-61
2024/01/12 00:36:53;;;;;;;7.88;2.33;;;4.90;99.90;;;;;;5033850;28;20378;-61
2024/01/12 00:39:20;;;;;;;8.60;2.10;;;4.80;99.90;;;;;;5033671;28;20042;-61
2024/01/12 00:41:50;;;;;;;15.32;2.65;;;4.90;99.90;;;;;;5033593;28;20045;-61
2024/01/12 00:44:24;;;;;;;7.65;2.03;;;4.90;99.90;;;;;;5032494;28;20481;-61
2024/01/12 00:46:51;;;;;;;11.15;2.00;;;4.90;99.90;;;;;;5032104;28;20428;-61
2024/01/12 00:49:18;;;;;;;9.77;2.05;;;4.90;99.90;;;;;;5033739;28;20087;-61
2024/01/12 00:51:45;;;;;;;11.27;2.60;;;4.90;99.90;;;;;;5033454;28;20068;-61
2024/01/12 00:54:12;;;;;;;13.18;2.45;;;4.90;99.90;;;;;;5033398;28;20029;-61
2024/01/12 00:56:39;;;;;;;19.40;2.60;;;4.90;99.90;;;;;;5033363;28;20395;-61
2024/01/12 00:59:06;;;;;;;12.82;2.67;;;4.90;99.90;;;;;;5032013;28;20064;-61
2024/01/12 01:01:33;;;;;;;12.25;2.28;;;4.90;99.90;;;;;;5033591;28;20050;-61
2024/01/12 01:04:00;;;;;;;17.23;2.63;;;4.90;99.90;;;;;;5033331;28;20054;-62
2024/01/12 01:06:26;;;;;;;9.20;1.83;;;4.90;99.90;;;;;;5031992;28;20383;-62
2024/01/12 01:08:54;;;;;;;13.52;2.75;;;4.90;99.90;;;;;;5033185;28;20072;-62
2024/01/12 01:11:21;;;;;;;10.05;2.10;;;5.00;99.90;;;;;;5033091;28;20045;-62
2024/01/12 01:13:48;;;;;;;16.75;2.42;;;5.00;99.90;;;;;;5032754;28;20469;-62
2024/01/12 01:16:14;;;;;;;13.68;2.47;;;5.00;99.90;;;;;;5032938;28;20112;-62
2024/01/12 01:18:41;;;;;;;9.52;2.80;;;5.00;99.90;;;;;;5015598;28;20395;-63
2024/01/12 01:21:08;;;;;;;13.77;2.80;;;4.90;99.90;;;;;;5033070;28;20049;-63
2024/01/12 01:23:35;;;;;;;13.30;2.70;;;4.90;99.90;;;;;;5032951;28;20047;-62
2024/01/12 01:26:02;;;;;;;11.95;2.25;;;4.90;99.90;;;;;;5032733;28;20490;-62
2024/01/12 01:28:29;;;;;;;12.02;2.47;;;4.90;99.90;;;;;;5032932;28;20037;-62
2024/01/12 01:30:56;;;;;;;17.08;3.67;;;4.90;99.90;;;;;;5031446;28;20130;-62
2024/01/12 01:33:23;;;;;;;12.75;2.72;;;4.90;99.90;;;;;;5032856;28;20056;-62
2024/01/12 01:35:50;;;;;;;12.35;2.30;;;4.90;99.90;;;;;;5028776;28;20037;-62
2024/01/12 01:38:17;;;;;;;12.13;2.60;;;4.90;99.90;;;;;;5012810;28;20061;-62
2024/01/12 01:40:44;;;;;;;10.27;2.40;;;4.80;99.90;;;;;;5013972;28;20049;-63
2024/01/12 01:43:10;;;;;;;11.95;3.00;;;4.90;99.90;;;;;;5014002;28;20045;-62
2024/01/12 01:45:37;;;;;;;8.73;2.10;;;4.90;99.90;;;;;;5013942;28;20054;-63
2024/01/12 01:48:04;;;;;;;13.93;2.55;;;4.80;99.90;;;;;;5017536;28;20033;-63
2024/01/12 01:50:31;;;;;;;16.55;3.08;;;4.90;99.90;;;;;;5032838;28;20104;-63
2024/01/12 01:52:58;;;;;;;16.40;2.65;;;4.90;99.90;;;;;;5032614;28;20113;-62
2024/01/12 01:55:25;;;;;;;15.10;2.60;;;4.90;99.90;;;;;;5032356;28;20034;-62
2024/01/12 01:57:52;;;;;;;16.35;2.92;;;5.00;99.90;;;;;;5031217;28;20046;-62
2024/01/12 02:00:19;;;;;;;16.35;3.22;;;4.90;99.90;;;;;;5032417;28;20063;-62
2024/01/12 02:02:46;;;;;;;16.98;3.00;;;5.00;99.90;;;;;;5032696;28;20347;-62
2024/01/12 02:05:13;;;;;;;15.65;3.50;;;5.00;99.90;;;;;;5032413;28;20099;-62
2024/01/12 02:07:40;;;;;;;15.02;2.78;;;5.00;99.90;;;;;;5032484;28;20045;-62
2024/01/12 02:10:07;;;;;;;16.27;3.17;;;5.00;99.90;;;;;;5032578;28;20202;-62
2024/01/12 02:12:34;;;;;;;13.73;2.78;;;5.00;99.90;;;;;;5032196;28;20045;-62
2024/01/12 02:15:01;;;;;;;16.80;3.97;;;5.00;99.90;;;;;;5030958;28;20059;-62
2024/01/12 02:17:28;;;;;;;14.65;3.00;;;5.00;99.90;;;;;;5031109;28;20112;-62
2024/01/12 02:19:54;;;;;;;17.52;2.70;;;5.00;99.90;;;;;;5029217;28;20064;-62
2024/01/12 02:22:21;;;;;;;12.82;3.00;;;5.00;99.90;;;;;;5013373;28;20112;-62
2024/01/12 02:24:48;;;;;;;17.80;3.25;;;5.00;99.90;;;;;;5015501;28;20077;-62
2024/01/12 02:27:15;;;;;;;17.80;3.00;;;5.00;99.90;;;;;;5035077;28;20041;-62
2024/01/12 02:29:41;;;;;;;13.10;2.80;;;5.00;99.90;;;;;;5036127;28;20140;-62
2024/01/12 02:32:08;;;;;;;19.92;2.88;;;5.00;99.90;;;;;;5035939;28;20117;-63
2024/01/12 02:34:35;;;;;;;19.63;2.95;;;5.00;99.90;;;;;;5035881;28;20124;-63
2024/01/12 02:37:02;;;;;;;16.98;2.83;;;5.00;99.90;;;;;;5035976;28;20049;-62
2024/01/12 02:39:29;;;;;;;19.60;2.92;;;5.00;99.90;;;;;;5036264;28;20145;-62
2024/01/12 02:41:57;;;;;;;15.75;3.03;;;5.00;99.90;;;;;;5035952;28;20049;-62
2024/01/12 02:44:24;;;;;;;18.73;3.72;;;5.00;99.90;;;;;;5035674;28;20061;-62
2024/01/12 02:46:51;;;;;;;17.20;2.95;;;5.00;99.90;;;;;;5035754;28;20061;-62
2024/01/12 02:49:18;;;;;;;14.10;2.45;;;5.00;99.90;;;;;;5035988;28;20038;-62
2024/01/12 02:51:44;;;;;;;13.65;2.75;;;5.00;99.90;;;;;;5035857;28;20045;-62
2024/01/12 02:54:11;;;;;;;19.85;3.60;;;5.00;99.90;;;;;;5035516;28;20099;-62
2024/01/12 02:56:38;;;;;;;17.77;2.85;;;5.00;99.90;;;;;;5019076;28;20383;-62
2024/01/12 02:59:05;;;;;;;13.68;3.50;;;5.00;99.90;;;;;;5016627;28;20125;-63
2024/01/12 03:01:34;;;;;;;18.95;2.88;;;5.00;99.90;;;;;;5016769;28;20042;-62
2024/01/12 03:04:01;;;;;;;17.42;3.55;;;5.00;99.90;;;;;;5016631;28;20069;-62
2024/01/12 03:06:28;;;;;;;18.50;3.55;;;5.00;99.90;;;;;;5016594;28;20046;-62
2024/01/12 03:08:54;;;;;;;20.70;3.50;;;5.10;99.90;;;;;;5016314;28;20040;-62
2024/01/12 03:11:21;;;;;;;16.48;3.33;;;5.00;99.90;;;;;;5016592;28;20034;-62
2024/01/12 03:13:48;;;;;;;18.58;3.58;;;5.10;99.90;;;;;;5016101;28;20034;-62
2024/01/12 03:16:15;;;;;;;19.73;3.75;;;5.00;99.90;;;;;;5016255;28;20088;-62
2024/01/12 03:18:42;;;;;;;18.60;3.80;;;5.10;99.90;;;;;;5016524;28;20084;-62
2024/01/12 03:21:08;;;;;;;25.45;3.60;;;5.10;99.90;;;;;;5016378;28;20050;-63
2024/01/12 03:23:35;;;;;;;17.90;3.30;;;5.10;99.90;;;;;;5016124;28;20037;-62
2024/01/12 03:26:03;;;;;;;17.08;3.58;;;5.10;99.90;;;;;;5027867;28;20069;-62
2024/01/12 03:28:30;;;;;;;20.48;3.70;;;5.10;99.90;;;;;;5035158;28;20116;-62
2024/01/12 03:30:56;;;;;;;26.38;3.83;;;5.00;99.90;;;;;;5034949;28;20046;-62
2024/01/12 03:33:23;;;;;;;16.80;3.85;;;5.10;99.90;;;;;;5035060;28;20428;-62
2024/01/12 03:35:50;;;;;;;19.50;4.10;;;5.10;99.90;;;;;;5034800;28;20048;-63
2024/01/12 03:38:17;;;;;;;26.08;4.45;;;5.10;99.90;;;;;;5033461;28;20080;-62
2024/01/12 03:40:44;;;;;;;20.80;3.03;;;5.10;99.90;;;;;;5034841;28;20065;-62
2024/01/12 03:43:11;;;;;;;21.50;3.75;;;5.10;99.90;;;;;;5034586;28;20056;-62
2024/01/12 03:45:38;;;;;;;17.77;3.13;;;5.10;99.90;;;;;;5034855;28;20136;-62
2024/01/12 03:48:04;;;;;;;24.08;4.13;;;5.10;99.90;;;;;;5034618;28;20164;-62
2024/01/12 03:50:31;;;;;;;18.83;3.33;;;5.10;99.90;;;;;;5034791;28;20048;-62
2024/01/12 03:52:58;;;;;;;21.77;3.58;;;5.10;99.90;;;;;;5034569;28;20117;-62
2024/01/12 03:55:25;;;;;;;18.02;3.47;;;5.10;99.90;;;;;;5034631;28;20041;-62
2024/01/12 03:57:52;;;;;;;26.42;4.20;;;5.10;99.90;;;;;;5033482;28;20501;-62
2024/01/12 04:00:19;;;;;;;23.45;3.88;;;5.10;99.90;;;;;;5034559;28;20041;-62
2024/01/12 04:02:46;;;;;;;20.83;3.55;;;5.10;99.90;;;;;;5034625;28;20517;-63
2024/01/12 04:05:12;;;;;;;19.35;3.70;;;5.10;99.90;;;;;;5034343;28;20384;-62
2024/01/12 04:07:39;;;;;;;20.70;3.83;;;5.10;99.90;;;;;;5034367;28;20061;-62
2024/01/12 04:10:06;;;;;;;21.98;4.40;;;5.10;99.90;;;;;;5034443;28;20120;-62
2024/01/12 04:12:33;;;;;;;27.45;4.35;;;5.10;99.90;;;;;;5034717;28;20478;-62
2024/01/12 04:15:00;;;;;;;22.92;5.00;;;5.10;99.90;;;;;;5027658;28;20088;-62
2024/01/12 04:17:27;;;;;;;17.17;3.08;;;5.10;99.90;;;;;;5015091;28;20050;-62
2024/01/12 04:19:53;;;;;;;21.38;3.47;;;5.10;99.90;;;;;;5021918;28;20487;-61
2024/01/12 04:22:20;;;;;;;26.67;4.15;;;5.10;99.90;;;;;;5034511;28;20045;-63
2024/01/12 04:24:47;;;;;;;21.05;3.58;;;5.10;99.90;;;;;;5026147;28;20054;-63
2024/01/12 04:27:14;;;;;;;16.00;3.30;;;5.10;99.90;;;;;;5033835;28;20104;-63
2024/01/12 04:29:41;;;;;;;20.65;3.67;;;5.10;99.90;;;;;;5020973;28;20040;-64
2024/01/12 04:32:07;;;;;;;25.52;3.63;;;5.10;99.90;;;;;;5014986;28;20042;-65
2024/01/12 04:34:35;;;;;;;23.40;3.70;;;5.10;99.90;;;;;;5027642;28;20038;-63
2024/01/12 04:37:03;;;;;;;22.55;3.90;;;5.10;99.90;;;;;;5020948;28;20041;-63
2024/01/12 04:39:29;;;;;;;17.02;3.35;;;5.10;99.90;;;;;;5021687;28;20045;-63
2024/01/12 04:41:56;;;;;;;25.75;3.70;;;5.10;99.90;;;;;;5033853;28;20128;-63
2024/01/12 04:44:23;;;;;;;24.70;4.05;;;5.10;99.90;;;;;;5020672;28;20045;-65
2024/01/12 04:46:50;;;;;;;18.88;3.88;;;5.10;99.90;;;;;;5026554;28;20116;-65
2024/01/12 04:49:17;;;;;;;23.15;5.28;;;5.20;99.90;;;;;;5014181;28;20038;-63
2024/01/12 04:51:44;;;;;;;20.42;3.63;;;5.20;99.90;;;;;;5027487;28;20103;-63
2024/01/12 04:54:10;;;;;;;20.48;3.30;;;5.10;99.90;;;;;;5014500;28;20038;-65
2024/01/12 04:56:38;;;;;;;18.73;4.18;;;5.20;99.90;;;;;;5033532;28;20044;-63
2024/01/12 04:59:05;;;;;;;25.42;4.65;;;5.10;99.90;;;;;;5033519;28;20037;-65
2024/01/12 05:01:31;;;;;;;24.05;4.32;;;5.20;99.90;;;;;;5033588;28;20042;-65
2024/01/12 05:03:58;;;;;;;19.42;3.53;;;5.20;99.90;;;;;;5014502;28;20050;-65
2024/01/12 05:06:25;;;;;;;21.25;3.85;;;5.20;99.90;;;;;;5032130;28;20398;-65
2024/01/12 05:08:52;;;;;;;24.92;3.97;;;5.20;99.90;;;;;;5033223;28;20133;-65
2024/01/12 05:11:20;;;;;;;19.13;3.45;;;5.20;99.90;;;;;;5033321;28;20041;-65
2024/01/12 05:13:47;;;;;;;23.55;3.25;;;5.20;99.90;;;;;;5033318;28;20073;-65
2024/01/12 05:16:14;;;;;;;20.38;4.18;;;5.20;99.90;;;;;;5026745;28;20099;-63
2024/01/12 05:18:40;;;;;;;22.45;2.95;;;5.20;99.90;;;;;;5027793;28;20038;-65
2024/01/12 05:21:08;;;;;;;21.08;3.17;;;5.20;99.90;;;;;;5013342;28;20203;-64
2024/01/12 05:23:35;;;;;;;18.58;3.60;;;5.20;99.90;;;;;;5013417;28;20046;-65
2024/01/12 05:26:01;;;;;;;19.98;3.67;;;5.20;99.90;;;;;;5024988;28;20413;-64
2024/01/12 05:28:28;;;;;;;22.27;3.67;;;5.20;99.90;;;;;;5013743;28;20435;-65
2024/01/12 05:30:55;;;;;;;22.67;4.03;;;5.20;99.90;;;;;;5013150;28;20107;-65
2024/01/12 05:33:22;;;;;;;20.33;3.28;;;5.20;99.90;;;;;;5031630;28;20052;-65
2024/01/12 05:35:49;;;;;;;21.50;3.80;;;5.20;99.90;;;;;;5032112;28;20041;-62
2024/01/12 05:38:16;;;;;;;20.15;3.17;;;5.20;99.90;;;;;;5032097;28;20049;-61
2024/01/12 05:40:42;;;;;;;21.35;4.22;;;5.20;99.90;;;;;;5032251;28;20514;-62
2024/01/12 05:43:09;;;;;;;19.35;3.78;;;5.20;99.90;;;;;;5031596;28;20049;-62
2024/01/12 05:45:36;;;;;;;17.65;3.35;;;5.20;99.90;;;;;;5031918;28;20370;-65
2024/01/12 05:48:03;;;;;;;22.40;4.75;;;5.20;99.90;;;;;;5031690;28;20037;-65
2024/01/12 05:50:30;;;;;;;20.92;2.85;;;5.20;99.90;;;;;;5013966;28;20046;-62
2024/01/12 05:52:57;;;;;;;18.83;3.80;;;5.20;99.90;;;;;;5012985;28;20061;-64
2024/01/12 05:55:24;;;;;;;19.05;3.38;;;5.20;99.90;;;;;;5019642;28;20038;-63
2024/01/12 05:57:51;;;;;;;19.73;3.72;;;5.20;99.90;;;;;;5031977;28;20438;-64
2024/01/12 06:00:18;;;;;;;21.33;3.45;;;5.20;99.90;;;;;;5030465;28;20045;-64
2024/01/12 06:02:45;;;;;;;16.67;3.78;;;5.20;99.90;;;;;;5031654;28;20049;-62
2024/01/12 06:05:11;;;;;;;21.25;4.15;;;5.20;99.90;;;;;;5031710;28;20053;-61
2024/01/12 06:07:38;;;;;;;16.45;3.40;;;5.20;99.90;;;;;;5031455;28;20397;-62
2024/01/12 06:10:07;;;;;;;20.73;3.53;;;5.20;99.90;;;;;;5025168;28;20367;-62
2024/01/12 06:12:34;;;;;;;22.75;3.83;;;5.20;99.90;;;;;;5013766;28;20105;-62
2024/01/12 06:15:01;;;;;;;22.00;3.55;;;5.20;99.90;;;;;;5031131;28;20044;-62
2024/01/12 06:17:28;;;;;;;15.98;3.85;;;5.20;99.90;;;;;;5031213;28;20122;-62
2024/01/12 06:19:55;;;;;;;22.42;3.45;;;5.20;99.90;;;;;;4992387;28;1122958;-62
2024/01/12 06:22:22;;;;;;;16.40;3.08;;;5.20;99.90;;;;;;5031957;28;20033;-62
2024/01/12 06:24:48;;;;;;;24.17;3.83;;;5.20;99.90;;;;;;5031611;28;20513;-62
2024/01/12 06:27:15;;;;;;;21.00;3.55;;;5.20;99.90;;;;;;5032206;28;20056;-62
2024/01/12 06:29:42;;;;;;;20.95;3.55;;;5.20;99.90;;;;;;5031996;28;20034;-64
2024/01/12 06:32:09;;;;;;;16.60;3.17;;;5.20;99.90;;;;;;5031183;28;20045;-64
2024/01/12 06:34:38;;;;;;;24.63;3.60;;;5.20;99.90;;;;;;5031864;28;20041;-64
2024/01/12 06:37:05;;;;;;;17.35;3.05;;;5.20;99.90;;;;;;5027755;28;20076;-64
2024/01/12 06:39:32;;;;;;;21.73;3.90;;;5.20;99.90;;;;;;5013091;28;20064;-63
2024/01/12 06:41:59;;;;;;;17.90;3.70;;;5.20;99.90;;;;;;5013264;28;20060;-64
2024/01/12 06:44:26;;;;;;;22.92;3.60;;;5.20;99.90;;;;;;5013074;28;20072;-64
2024/01/12 06:46:53;;;;;;;20.38;3.40;;;5.20;99.90;;;;;;5013127;28;20127;-63
2024/01/12 06:49:20;;;;;;;21.55;4.13;;;5.20;99.90;;;;;;5013147;28;20463;-63
2024/01/12 06:51:46;;;;;;;22.83;3.45;;;5.20;99.90;;;;;;5013216;28;20157;-64
2024/01/12 06:54:13;;;;;;;16.10;3.47;;;5.20;99.90;;;;;;5013438;28;20034;-64
2024/01/12 06:56:42;;;;;;;19.25;3.92;;;5.20;99.90;;;;;;5030136;28;20072;-61
2024/01/12 06:59:09;;;;;;;17.00;3.05;;;5.20;99.90;;;;;;5031877;28;20038;-61
2024/01/12 07:01:36;;;;;;;20.85;3.63;;;5.20;99.90;;;;;;5031951;28;20143;-61
2024/01/12 07:04:03;;;;;;;17.27;3.08;;;5.20;99.90;;;;;;5030422;28;20065;-65
2024/01/12 07:06:30;;;;;;;19.58;3.38;;;5.20;99.90;;;;;;5025747;28;20053;-63
2024/01/12 07:08:57;;;;;;;15.82;3.22;;;5.20;99.90;;;;;;5027723;28;20077;-65
2024/01/12 07:11:24;;;;;;;23.33;3.55;;;5.30;99.90;;;;;;5028843;28;20091;-65
2024/01/12 07:13:51;;;;;;;16.33;3.35;;;5.20;99.90;;;;;;5035365;28;20046;-65
2024/01/12 07:16:18;;;;;;;20.10;3.65;;;5.20;99.90;;;;;;5022483;28;20052;-65
2024/01/12 07:18:44;;;;;;;16.60;3.20;;;5.20;99.90;;;;;;5035499;28;20048;-63
2024/01/12 07:21:12;;;;;;;15.82;3.53;;;5.20;99.90;;;;;;5031023;28;20491;-65
2024/01/12 07:23:39;;;;;;;22.35;3.50;;;5.20;99.90;;;;;;5020372;28;20050;-65
2024/01/12 07:26:06;;;;;;;22.00;3.67;;;5.20;99.90;;;;;;5035122;28;20055;-65
2024/01/12 07:28:32;;;;;;;19.10;3.60;;;5.20;99.90;;;;;;5034215;28;20143;-64
2024/01/12 07:30:59;;;;;;;16.77;3.00;;;5.20;99.90;;;;;;5035079;28;20069;-61
2024/01/12 07:33:26;;;;;;;16.08;3.17;;;5.20;99.90;;;;;;5025245;28;20052;-61
2024/01/12 07:35:53;;;;;;;15.32;3.20;;;5.20;99.90;;;;;;5014649;28;20121;-61
2024/01/12 07:38:20;;;;;;;16.10;3.28;;;5.30;99.90;;;;;;5016153;28;20077;-61
2024/01/12 07:40:47;;;;;;;14.45;3.30;;;5.20;99.90;;;;;;5015173;28;20100;-61
2024/01/12 07:43:14;;;;;;;17.25;4.60;;;5.10;99.90;;;;;;5015654;28;20462;-61
2024/01/12 07:45:41;;;;;;;15.38;4.38;;;5.20;99.90;;;;;;5015953;28;20046;-62
2024/01/12 07:48:08;;;;;;;17.60;4.60;;;5.20;99.90;;;;;;5015524;28;20065;-62
2024/01/12 07:50:35;;;;;;;23.08;4.00;;;5.20;99.90;;;;;;5015884;28;20040;-62
2024/01/12 07:53:02;;;;;;;19.13;3.95;;;5.20;99.90;;;;;;5015641;28;20073;-61
2024/01/12 07:55:29;;;;;;;14.07;3.30;;;5.20;99.90;;;;;;5023289;28;20439;-61
2024/01/12 07:57:56;;;;;;;18.15;3.70;;;5.30;99.90;;;;;;5024847;28;20096;-61
2024/01/12 08:00:23;;;;;;;12.80;4.40;;;5.30;99.90;;;;;;5015769;28;20100;-62
2024/01/12 08:02:50;;;;;;;21.77;5.30;;;5.30;99.90;;;;;;5025137;28;20056;-61
2024/01/12 08:05:17;;;;;;;19.23;3.78;;;5.20;99.90;;;;;;5027452;28;20026;-61
2024/01/12 08:07:44;;;;;;;14.15;3.28;;;5.30;99.90;;;;;;5030515;28;20037;-61
2024/01/12 08:10:11;;;;;;;20.15;3.35;;;5.30;99.90;;;;;;5018738;28;20042;-61
2024/01/12 08:12:38;;;;;;;18.63;3.45;;;5.30;99.90;;;;;;5015499;28;20096;-61
2024/01/12 08:15:05;;;;;;;15.90;4.03;;;5.30;99.90;;;;;;5015589;28;20046;-61
2024/01/12 08:17:32;;;;;;;14.38;3.78;;;5.30;99.90;;;;;;5014004;28;20049;-61
2024/01/12 08:19:58;;;;;;;14.85;3.35;;;5.30;99.90;;;;;;5023320;28;20054;-61
2024/01/12 08:22:26;;;;;;;19.23;3.60;;;5.30;99.90;;;;;;5025839;28;20075;-61
2024/01/12 08:24:52;;;;;;;11.55;2.40;;;5.20;99.90;;;;;;5027926;28;21163;-63
2024/01/12 08:27:19;;;;;;;13.82;2.63;;;5.30;99.90;;;;;;5025179;28;20394;-64
2024/01/12 08:29:47;;;;;;;13.85;2.88;;;5.20;99.90;;;;;;5026116;28;20068;-64
2024/01/12 08:32:14;;;;;;;16.33;2.75;;;5.30;99.90;;;;;;5027158;28;20124;-64
2024/01/12 08:34:41;;;;;;;16.17;2.90;;;5.30;99.90;;;;;;5021411;28;20431;-65
2024/01/12 08:37:08;;;;;;;17.45;2.78;;;5.30;99.90;;;;;;5022414;28;20483;-65
2024/01/12 08:39:34;;;;;;;14.50;2.72;;;5.30;99.90;;;;;;5013699;28;20040;-64
2024/01/12 08:42:02;;;;;;;16.27;2.38;;;5.30;99.90;;;;;;5014815;28;20059;-61
2024/01/12 08:44:29;;;;;;;20.08;4.00;;;5.30;99.90;;;;;;5020881;28;20039;-61
2024/01/12 08:46:56;;;;;;;17.40;3.40;;;5.30;99.90;;;;;;5023012;28;20562;-61
2024/01/12 08:49:22;;;;;;;9.90;2.15;;;5.30;99.90;;;;;;5025083;28;20046;-60
2024/01/12 08:51:49;;;;;;;16.60;2.65;;;5.30;99.90;;;;;;5032042;28;20043;-61
2024/01/12 08:54:16;;;;;;;18.48;3.33;;;5.30;99.90;;;;;;5017018;28;20044;-60
2024/01/12 08:56:43;;;;;;;16.83;3.08;;;5.30;99.90;;;;;;5016452;28;20057;-65
2024/01/12 08:59:10;;;;;;;17.75;2.92;;;5.30;99.90;;;;;;5015320;28;20450;-64
2024/01/12 09:01:37;;;;;;;13.63;2.90;;;5.30;99.90;;;;;;5017667;28;20046;-65
2024/01/12 09:04:03;;;;;;;15.55;3.63;;;5.30;99.90;;;;;;5020042;28;20038;-66
2024/01/12 09:06:30;;;;;;;15.88;3.03;;;5.30;99.90;;;;;;5017470;28;20064;-65
2024/01/12 09:08:58;;;;;;;10.98;2.95;;;5.30;99.90;;;;;;5018073;28;20049;-65
2024/01/12 09:11:25;;;;;;;9.40;2.33;;;5.40;99.90;;;;;;5024936;28;20041;-64
2024/01/12 09:13:51;;;;;;;10.75;2.08;;;5.40;99.90;;;;;;5020896;28;20048;-64
2024/01/12 09:16:18;;;;;;;10.30;2.45;;;5.30;99.90;;;;;;5015615;28;20037;-64
2024/01/12 09:18:47;;;;;;;8.60;1.98;;;5.40;99.90;;;;;;5026192;28;20049;-64
2024/01/12 09:21:15;;;;;;;13.57;2.50;;;5.30;99.90;;;;;;5026198;28;20037;-65
2024/01/12 09:23:43;;;;;;;9.35;1.88;;;5.30;99.90;;;;;;5028243;28;20405;-65
2024/01/12 09:26:10;;;;;;;14.25;2.83;;;5.30;99.90;;;;;;5024602;28;20044;-65
2024/01/12 09:28:37;;;;;;;14.02;2.92;;;5.30;99.90;;;;;;5013208;28;20042;-64
2024/01/12 09:31:04;;;;;;;11.85;2.85;;;5.30;99.90;;;;;;5019595;28;20037;-63
2024/01/12 09:33:31;;;;;;;12.73;2.90;;;5.30;99.90;;;;;;5024124;28;20053;-64
2024/01/12 09:35:58;;;;;;;9.68;2.70;;;5.30;99.90;;;;;;5020947;28;20049;-65
2024/01/12 09:38:24;;;;;;;11.20;3.08;;;5.30;99.90;;;;;;5021320;28;20037;-64
2024/01/12 09:40:51;;;;;;;9.70;2.03;;;5.40;99.90;;;;;;5021230;28;20038;-65
2024/01/12 09:43:18;;;;;;;11.65;2.65;;;5.40;99.90;;;;;;5013338;28;20096;-64
2024/01/12 09:45:45;;;;;;;9.05;2.10;;;5.40;99.90;;;;;;5015430;28;20037;-64
2024/01/12 09:48:12;;;;;;;10.70;1.90;;;5.40;99.90;;;;;;5012785;28;20042;-65
2024/01/12 09:50:39;;;;;;;12.77;3.05;;;5.40;99.90;;;;;;5014190;28;20045;-65
2024/01/12 09:53:06;;;;;;;12.60;2.63;;;5.40;99.90;;;;;;5013332;28;20065;-61
2024/01/12 09:55:33;;;;;;;13.77;2.70;;;5.40;99.90;;;;;;5018235;28;20789;-62
2024/01/12 09:58:00;;;;;;;10.40;2.67;;;5.50;99.90;;;;;;5011926;28;20074;-61
2024/01/12 10:00:27;;;;;;;19.17;7.05;;;5.40;99.90;;;;;;5012781;28;20411;-61
2024/01/12 10:02:55;;;;;;;23.25;8.60;;;5.40;99.90;;;;;;5025509;28;20040;-62
2024/01/12 10:05:22;;;;;;;27.38;9.02;;;5.40;99.90;;;;;;5018083;28;20046;-62
2024/01/12 10:07:49;;;;;;;10.50;3.90;;;5.50;99.90;;;;;;5017494;28;20065;-63
2024/01/12 10:10:16;;;;;;;17.60;3.72;;;5.50;99.90;;;;;;5020068;28;20070;-62
2024/01/12 10:12:43;;;;;;;19.17;3.83;;;5.50;99.90;;;;;;5021323;28;20060;-63
2024/01/12 10:15:09;;;;;;;17.55;5.82;;;5.50;99.90;;;;;;5017206;28;20042;-63
2024/01/12 10:17:36;;;;;;;13.60;3.10;;;5.50;99.90;;;;;;5015297;28;20050;-62
2024/01/12 10:20:06;;;;;;;16.30;4.40;;;5.60;99.90;;;;;;5031598;28;20057;-62
2024/01/12 10:22:33;;;;;;;13.18;3.40;;;5.60;99.90;;;;;;5023118;28;20065;-60
2024/01/12 10:25:00;;;;;;;12.20;3.08;;;5.60;99.90;;;;;;5031882;28;20510;-62
2024/01/12 10:27:27;;;;;;;11.85;2.67;;;5.70;99.90;;;;;;5024788;28;20084;-62
2024/01/12 10:29:54;;;;;;;16.77;3.35;;;5.70;99.90;;;;;;5025006;28;20038;-63
2024/01/12 10:32:21;;;;;;;16.05;3.95;;;5.60;99.90;;;;;;5026008;28;20160;-62
2024/01/12 10:34:48;;;;;;;17.33;4.70;;;5.60;99.90;;;;;;5026391;28;20048;-60
2024/01/12 10:37:15;;;;;;;12.90;3.20;;;5.60;99.90;;;;;;5020874;28;20046;-61
2024/01/12 10:39:42;;;;;;;12.73;2.67;;;5.60;99.90;;;;;;5021449;28;20132;-60
2024/01/12 10:42:09;;;;;;;13.60;2.58;;;5.60;99.90;;;;;;5019225;28;20438;-61
2024/01/12 10:44:36;;;;;;;10.20;2.50;;;5.60;99.90;;;;;;5031002;28;20117;-62
2024/01/12 10:47:03;;;;;;;13.25;2.50;;;5.50;99.90;;;;;;5019594;28;20483;-62
2024/01/12 10:49:30;;;;;;;13.75;2.92;;;5.60;99.90;;;;;;5016317;28;20456;-62
2024/01/12 10:51:57;;;;;;;11.50;2.90;;;5.60;99.90;;;;;;5019576;28;20048;-63
2024/01/12 10:54:23;;;;;;;9.82;2.25;;;5.60;99.90;;;;;;5035397;28;20037;-62
2024/01/12 10:56:50;;;;;;;15.80;2.50;;;5.60;99.90;;;;;;5018791;28;20042;-63
2024/01/12 10:59:17;;;;;;;11.88;3.58;;;5.60;99.90;;;;;;5016482;28;20380;-63
2024/01/12 11:01:44;;;;;;;9.70;1.88;;;5.60;99.90;;;;;;5017955;28;20491;-67
2024/01/12 11:04:11;;;;;;;8.85;2.38;;;5.60;99.90;;;;;;5032059;28;20034;-61
2024/01/12 11:06:38;;;;;;;10.93;2.30;;;5.70;99.90;;;;;;5024047;28;20405;-61
2024/01/12 11:09:06;;;;;;;41.72;19.55;;;5.70;99.90;;;;;;5029529;28;20490;-61
2024/01/12 11:11:33;;;;;;;11.40;4.07;;;5.70;99.90;;;;;;5023003;28;20091;-61
2024/01/12 11:14:00;;;;;;;8.50;3.10;;;5.70;99.90;;;;;;5027513;28;20066;-61
2024/01/12 11:16:27;;;;;;;8.63;2.50;;;5.70;99.90;;;;;;5029702;28;20058;-61
2024/01/12 11:18:54;;;;;;;13.00;4.00;;;5.80;99.90;;;;;;5032777;28;20048;-61
2024/01/12 11:21:21;;;;;;;13.23;5.35;;;5.80;99.90;;;;;;5020221;28;20038;-61
2024/01/12 11:23:48;;;;;;;20.10;10.98;;;5.80;99.90;;;;;;5015221;28;20034;-61
2024/01/12 11:26:15;;;;;;;10.45;4.97;;;5.70;99.90;;;;;;5025081;28;20049;-61
2024/01/12 11:28:42;;;;;;;12.38;5.05;;;5.70;99.90;;;;;;5026710;28;20463;-62
2024/01/12 11:31:09;;;;;;;11.73;3.38;;;5.70;99.90;;;;;;5028695;28;20372;-62
2024/01/12 11:33:36;;;;;;;11.07;3.60;;;5.70;99.90;;;;;;5029561;28;20033;-61
2024/01/12 11:36:05;;;;;;;13.18;2.78;;;5.70;99.90;;;;;;5024208;28;20038;-62
2024/01/12 11:38:32;;;;;;;9.52;2.28;;;5.70;99.90;;;;;;5026918;28;20041;-62
2024/01/12 11:40:58;;;;;;;8.27;2.40;;;5.70;99.90;;;;;;5030293;28;20038;-62
2024/01/12 11:43:26;;;;;;;10.77;2.05;;;5.70;99.90;;;;;;5026731;28;20047;-62
2024/01/12 11:45:53;;;;;;;10.48;4.30;;;5.70;99.90;;;;;;5027975;28;20449;-62
2024/01/12 11:48:19;;;;;;;8.65;2.17;;;5.80;99.90;;;;;;5033626;28;20033;-62
2024/01/12 11:50:46;;;;;;;7.65;1.63;;;5.80;99.90;;;;;;5026895;28;20037;-62
2024/01/12 11:53:13;;;;;;;6.85;1.67;;;5.90;99.90;;;;;;5028248;28;20038;-62
2024/01/12 11:55:40;;;;;;;10.30;2.03;;;5.90;99.90;;;;;;5023150;28;20034;-62
2024/01/12 11:58:07;;;;;;;6.68;1.63;;;5.80;99.90;;;;;;5028653;28;20483;-62
2024/01/12 12:00:34;;;;;;;12.68;2.00;;;5.90;99.90;;;;;;5028911;28;20052;-62
2024/01/12 12:03:01;;;;;;;11.63;3.47;;;5.90;99.90;;;;;;5026565;28;20045;-61
2024/01/12 12:05:28;;;;;;;7.90;2.58;;;5.90;99.90;;;;;;5033422;28;20064;-60
2024/01/12 12:07:55;;;;;;;9.43;3.20;;;5.90;99.90;;;;;;5027412;28;20132;-60
2024/01/12 12:10:22;;;;;;;5.30;1.42;;;5.90;99.90;;;;;;5024835;28;20037;-61
2024/01/12 12:13:03;;;;;;;4.75;1.60;;;5.80;99.90;;;;;;5030320;28;20696;-62
2024/01/12 12:15:30;;;;;;;9.05;1.30;;;5.80;99.90;;;;;;5022997;28;20068;-62
2024/01/12 12:17:57;;;;;;;7.38;1.25;;;5.90;99.90;;;;;;5028429;28;20041;-60
2024/01/12 12:20:24;;;;;;;6.38;1.30;;;5.90;99.90;;;;;;5026624;28;20041;-62
2024/01/12 12:22:51;;;;;;;7.45;1.75;;;5.90;99.90;;;;;;5028983;28;20124;-62
2024/01/12 12:25:18;;;;;;;5.53;1.50;;;6.00;99.90;;;;;;5024669;28;20100;-62
2024/01/12 12:27:46;;;;;;;4.78;0.95;;;6.00;99.90;;;;;;5028532;28;20049;-62
2024/01/12 12:30:13;;;;;;;5.22;1.20;;;6.00;99.90;;;;;;5032934;28;20214;-62
2024/01/12 12:32:41;;;;;;;7.45;2.15;;;6.00;99.90;;;;;;5033537;28;20048;-63
2024/01/12 12:35:08;;;;;;;5.28;1.27;;;6.00;99.90;;;;;;5020057;28;20049;-61
2024/01/12 12:37:35;;;;;;;5.47;1.02;;;6.00;99.90;;;;;;5028904;28;20116;-62
2024/01/12 12:40:04;;;;;;;4.60;0.98;;;6.00;99.90;;;;;;5014172;28;20081;-65
2024/01/12 12:42:31;;;;;;;5.18;1.23;;;6.00;99.90;;;;;;5014974;28;20057;-66
2024/01/12 12:44:58;;;;;;;5.18;1.25;;;6.00;99.90;;;;;;5029548;28;20045;-66